createdAt,value
2023-01-19T00:02:54.979Z,98652.72
2023-01-19T00:06:07.978Z,98644.37
2023-01-19T00:09:22.287Z,98635.22
2023-01-19T00:12:34.915Z,98637.81
2023-01-19T00:15:47.210Z,98628.22
2023-01-19T00:18:59.803Z,98630.22
2023-01-19T00:22:12.103Z,98629.00
2023-01-19T00:25:24.926Z,98643.75
2023-01-19T00:28:37.330Z,98641.16
2023-01-19T00:31:50.358Z,98630.22
2023-01-19T00:35:02.711Z,98627.44
2023-01-19T00:38:15.349Z,98616.13
2023-01-19T00:41:46.260Z,98621.84
2023-01-19T00:44:58.912Z,98617.31
2023-01-19T00:48:11.284Z,98607.94
2023-01-19T00:51:23.922Z,98613.28
2023-01-19T00:54:37.944Z,98602.16
2023-01-19T00:57:50.614Z,98605.16
2023-01-19T01:01:04.854Z,98612.31
2023-01-19T01:04:17.644Z,98621.44
2023-01-19T01:07:30.188Z,98617.69
2023-01-19T01:10:42.777Z,98607.56
2023-01-19T01:13:55.096Z,98600.41
2023-01-19T01:17:11.263Z,98588.47
2023-01-19T01:20:26.989Z,98577.53
2023-01-19T01:23:40.473Z,98579.31
2023-01-19T01:26:52.804Z,98570.19
2023-01-19T01:30:06.717Z,98573.16
2023-01-19T01:33:41.113Z,98580.50
2023-01-19T01:36:52.387Z,98584.91
2023-01-19T01:40:05.934Z,98580.50
2023-01-19T01:43:18.828Z,98585.25
2023-01-19T01:46:31.392Z,98602.69
2023-01-19T01:49:44.037Z,98607.09
2023-01-19T01:53:06.883Z,98602.31
2023-01-19T01:56:23.980Z,98593.94
2023-01-19T01:59:40.114Z,98588.44
2023-01-19T02:02:54.953Z,98587.22
2023-01-19T02:06:07.759Z,98605.06
2023-01-19T02:09:38.717Z,98611.97
2023-01-19T02:13:10.237Z,98616.53
2023-01-19T02:16:22.622Z,98588.16
2023-01-19T02:19:39.591Z,98582.38
2023-01-19T02:22:51.944Z,98576.88
2023-01-19T02:26:04.906Z,98581.03
2023-01-19T02:29:18.642Z,98600.06
2023-01-19T02:32:31.285Z,98597.97
2023-01-19T02:35:43.640Z,98614.97
2023-01-19T02:38:56.593Z,98610.53
2023-01-19T02:42:11.734Z,98610.88
2023-01-19T02:45:24.351Z,98592.16
2023-01-19T02:48:36.685Z,98572.34
2023-01-19T02:51:49.416Z,98567.53
2023-01-19T02:55:10.879Z,98585.00
2023-01-19T02:58:29.411Z,98588.56
2023-01-19T03:02:12.840Z,98611.94
2023-01-19T03:06:04.071Z,98625.25
2023-01-19T03:09:29.153Z,98638.84
2023-01-19T03:12:46.271Z,98638.00
2023-01-19T03:16:24.704Z,98616.56
2023-01-19T03:19:39.760Z,98644.78
2023-01-19T03:22:54.794Z,98648.31
2023-01-19T03:26:09.709Z,98658.03
2023-01-19T03:29:22.064Z,98650.00
2023-01-19T03:32:37.432Z,98642.69
2023-01-19T03:35:50.721Z,98621.63
2023-01-19T03:39:04.348Z,98595.47
2023-01-19T03:42:16.671Z,98570.81
2023-01-19T03:45:30.913Z,98585.03
2023-01-19T03:48:43.277Z,98586.69
2023-01-19T03:51:57.117Z,98573.81
2023-01-19T03:55:10.403Z,98571.22
2023-01-19T03:58:23.047Z,98579.31
2023-01-19T04:01:35.528Z,98593.56
2023-01-19T04:04:48.439Z,98605.22
2023-01-19T04:08:00.772Z,98600.66
2023-01-19T04:11:13.364Z,98591.97
2023-01-19T04:14:25.685Z,98572.72
2023-01-19T04:17:39.159Z,98590.00
2023-01-19T04:20:51.456Z,98578.47
2023-01-19T04:24:04.190Z,98569.84
2023-01-19T04:27:16.757Z,98580.06
2023-01-19T04:30:29.433Z,98589.22
2023-01-19T04:33:41.733Z,98616.66
2023-01-19T04:36:56.007Z,98611.72
2023-01-19T04:40:09.095Z,98602.66
2023-01-19T04:43:21.952Z,98609.41
2023-01-19T04:46:35.009Z,98610.62
2023-01-19T04:49:47.625Z,98607.47
2023-01-19T04:53:00.980Z,98590.53
2023-01-19T04:56:13.786Z,98582.69
2023-01-19T04:59:26.115Z,98593.34
2023-01-19T05:02:39.012Z,98611.84
2023-01-19T05:05:51.440Z,98631.28
2023-01-19T05:09:04.742Z,98619.69
2023-01-19T05:12:17.675Z,98634.19
2023-01-19T05:15:30.354Z,98632.16
2023-01-19T05:18:42.783Z,98618.69
2023-01-19T05:21:55.428Z,98642.75
2023-01-19T05:25:11.485Z,98659.22
2023-01-19T05:28:24.134Z,98667.28
2023-01-19T05:31:37.330Z,98669.56
2023-01-19T05:34:50.012Z,98680.94
2023-01-19T05:38:02.474Z,98688.75
2023-01-19T05:41:15.207Z,98694.25
2023-01-19T05:44:27.552Z,98687.88
2023-01-19T05:47:40.163Z,98672.81
2023-01-19T05:50:57.358Z,98678.41
2023-01-19T05:54:10.196Z,98673.78
2023-01-19T05:57:22.948Z,98669.53
2023-01-19T06:00:35.561Z,98642.84
2023-01-19T06:03:48.913Z,98636.81
2023-01-19T06:07:02.374Z,98644.50
2023-01-19T06:10:15.378Z,98654.97
2023-01-19T06:13:27.774Z,98649.34
2023-01-19T06:16:40.616Z,98644.41
2023-01-19T06:19:52.954Z,98664.63
2023-01-19T06:23:05.539Z,98688.03
2023-01-19T06:26:17.917Z,98682.25
2023-01-19T06:29:30.642Z,98673.72
2023-01-19T06:32:43.130Z,98677.66
2023-01-19T06:35:55.854Z,98649.19
2023-01-19T06:39:09.709Z,98650.34
2023-01-19T06:42:22.420Z,98656.50
2023-01-19T06:45:34.903Z,98667.91
2023-01-19T06:48:48.114Z,98682.84
2023-01-19T06:52:00.489Z,98675.75
2023-01-19T06:55:14.568Z,98669.41
2023-01-19T06:58:27.557Z,98669.00
2023-01-19T07:01:40.422Z,98671.97
2023-01-19T07:04:52.867Z,98693.47
2023-01-19T07:08:06.584Z,98685.56
2023-01-19T07:11:23.612Z,98686.62
2023-01-19T07:14:41.745Z,98687.63
2023-01-19T07:17:57.301Z,98674.28
2023-01-19T07:21:09.947Z,98659.81
2023-01-19T07:24:22.309Z,98670.72
2023-01-19T07:27:34.981Z,98672.19
2023-01-19T07:30:52.529Z,98665.59
2023-01-19T07:34:05.516Z,98682.69
2023-01-19T07:37:17.863Z,98714.03
2023-01-19T07:40:31.153Z,98710.41
2023-01-19T07:43:43.679Z,98717.97
2023-01-19T07:46:56.440Z,98714.19
2023-01-19T07:50:11.151Z,98709.50
2023-01-19T07:53:23.801Z,98724.09
2023-01-19T07:56:36.181Z,98715.00
2023-01-19T07:59:48.949Z,98712.44
2023-01-19T08:03:03.352Z,98711.06
2023-01-19T08:06:25.786Z,98712.41
2023-01-19T08:09:38.171Z,98708.41
2023-01-19T08:12:50.833Z,98698.94
2023-01-19T08:16:03.315Z,98700.09
2023-01-19T08:19:16.012Z,98711.09
2023-01-19T08:22:28.418Z,98707.81
2023-01-19T08:25:42.413Z,98704.78
2023-01-19T08:28:57.634Z,98706.28
2023-01-19T08:32:10.369Z,98714.03
2023-01-19T08:35:23.823Z,98714.03
2023-01-19T08:38:36.795Z,98719.72
2023-01-19T08:41:49.895Z,98728.13
2023-01-19T08:45:02.469Z,98724.16
2023-01-19T08:48:20.319Z,98721.75
2023-01-19T08:51:33.104Z,98726.78
2023-01-19T08:54:46.313Z,98731.09
2023-01-19T08:58:00.080Z,98730.00
2023-01-19T09:01:17.111Z,98728.09
2023-01-19T09:04:32.206Z,98719.00
2023-01-19T09:07:51.763Z,98723.59
2023-01-19T09:11:05.301Z,98712.66
2023-01-19T09:14:17.670Z,98715.00
2023-01-19T09:17:30.395Z,98707.97
2023-01-19T09:20:43.303Z,98709.91
2023-01-19T09:23:56.349Z,98712.03
2023-01-19T09:27:08.675Z,98718.53
2023-01-19T09:30:21.371Z,98723.50
2023-01-19T09:33:34.003Z,98725.34
2023-01-19T09:36:47.014Z,98728.31
2023-01-19T09:39:59.405Z,98714.06
2023-01-19T09:43:18.411Z,98717.41
2023-01-19T09:46:38.980Z,98719.28
2023-01-19T09:50:23.131Z,98723.62
2023-01-19T09:53:45.548Z,98736.31
2023-01-19T09:56:58.200Z,98736.59
2023-01-19T10:00:16.376Z,98740.03
2023-01-19T10:03:29.138Z,98726.88
2023-01-19T10:06:42.746Z,98734.41
2023-01-19T10:10:10.481Z,98746.72
2023-01-19T10:13:44.021Z,98739.12
2023-01-19T10:17:09.193Z,98726.06
2023-01-19T10:20:27.273Z,98731.50
2023-01-19T10:23:55.091Z,98736.75
2023-01-19T10:27:13.785Z,98745.28
2023-01-19T10:30:28.051Z,98740.69
2023-01-19T10:33:40.406Z,98738.75
2023-01-19T10:36:56.944Z,98750.66
2023-01-19T10:40:09.225Z,98747.94
2023-01-19T10:43:48.413Z,98750.69
2023-01-19T10:47:01.376Z,98740.41
2023-01-19T10:50:28.010Z,98749.44
2023-01-19T10:53:41.886Z,98738.19
2023-01-19T10:57:03.557Z,98735.53
2023-01-19T11:00:37.910Z,98724.84
2023-01-19T11:03:50.812Z,98722.78
2023-01-19T11:07:14.530Z,98742.25
2023-01-19T11:10:31.047Z,98747.44
2023-01-19T11:13:45.234Z,98741.91
2023-01-19T11:16:58.162Z,98750.78
2023-01-19T11:20:33.674Z,98761.63
2023-01-19T11:23:47.030Z,98758.56
2023-01-19T11:27:03.751Z,98759.94
2023-01-19T11:30:24.442Z,98767.53
2023-01-19T11:33:41.181Z,98769.50
2023-01-19T11:37:01.371Z,98769.25
2023-01-19T11:40:15.740Z,98779.94
2023-01-19T11:43:39.709Z,98781.28
2023-01-19T11:47:02.708Z,98775.69
2023-01-19T11:50:23.734Z,98776.72
2023-01-19T11:53:36.555Z,98775.63
2023-01-19T11:56:51.269Z,98772.44
2023-01-19T12:00:05.255Z,98768.75
2023-01-19T12:03:22.873Z,98779.38
2023-01-19T12:06:36.473Z,98774.44
2023-01-19T12:09:51.686Z,98789.03
2023-01-19T12:13:04.416Z,98800.16
2023-01-19T12:16:24.707Z,98817.06
2023-01-19T12:19:44.243Z,98821.59
2023-01-19T12:23:24.172Z,98821.34
2023-01-19T12:26:37.439Z,98834.03
2023-01-19T12:30:06.029Z,98824.44
2023-01-19T12:33:37.605Z,98828.81
2023-01-19T12:36:50.428Z,98826.47
2023-01-19T12:40:17.358Z,98848.94
2023-01-19T12:43:29.716Z,98850.00
2023-01-19T12:46:50.161Z,98856.59
2023-01-19T12:50:13.431Z,98854.00
2023-01-19T12:53:27.162Z,98856.81
2023-01-19T12:56:39.536Z,98852.75
2023-01-19T12:59:56.607Z,98863.31
2023-01-19T13:03:18.226Z,98873.31
2023-01-19T13:07:05.970Z,98880.00
2023-01-19T13:10:55.473Z,98902.75
2023-01-19T13:14:14.352Z,98910.41
2023-01-19T13:17:27.210Z,98908.91
2023-01-19T13:20:44.851Z,98908.91
2023-01-19T13:24:00.724Z,98918.13
2023-01-19T13:27:13.293Z,98925.31
2023-01-19T13:30:27.513Z,98934.44
2023-01-19T13:33:49.188Z,98933.31
2023-01-19T13:37:02.099Z,98947.53
2023-01-19T13:40:25.747Z,98955.63
2023-01-19T13:43:38.214Z,98945.12
2023-01-19T13:46:51.710Z,98946.00
2023-01-19T13:50:05.607Z,98949.56
2023-01-19T13:53:19.409Z,98956.59
2023-01-19T13:56:32.705Z,98955.91
2023-01-19T13:59:45.394Z,98965.19
2023-01-19T14:03:13.619Z,98968.78
2023-01-19T14:06:41.754Z,98977.22
2023-01-19T14:10:06.032Z,98985.28
2023-01-19T14:13:25.111Z,98989.66
2023-01-19T14:16:37.666Z,98994.28
2023-01-19T14:19:51.123Z,98993.03
2023-01-19T14:23:04.015Z,98990.44
2023-01-19T14:26:38.603Z,98981.91
2023-01-19T14:29:53.745Z,98992.03
2023-01-19T14:33:11.351Z,98998.41
2023-01-19T14:36:34.389Z,99018.31
2023-01-19T14:39:57.786Z,99017.06
2023-01-19T14:43:10.918Z,99013.16
2023-01-19T14:46:24.469Z,99032.78
2023-01-19T14:49:40.986Z,99042.63
2023-01-19T14:53:04.249Z,99042.19
2023-01-19T14:56:30.360Z,99058.28
2023-01-19T14:59:48.362Z,99071.97
2023-01-19T15:03:00.816Z,99077.13
2023-01-19T15:06:13.759Z,99083.00
2023-01-19T15:09:27.078Z,99088.53
2023-01-19T15:12:39.738Z,99097.59
2023-01-19T15:15:52.167Z,99103.03
2023-01-19T15:19:04.802Z,99094.59
2023-01-19T15:22:17.146Z,99076.25
2023-01-19T15:25:31.580Z,99075.59
2023-01-19T15:28:44.172Z,99058.81
2023-01-19T15:31:56.838Z,99064.47
2023-01-19T15:35:16.620Z,99066.75
2023-01-19T15:38:29.274Z,99074.88
2023-01-19T15:41:41.658Z,99085.87
2023-01-19T15:44:54.282Z,99092.34
2023-01-19T15:48:08.073Z,99092.03
2023-01-19T15:51:22.215Z,99112.28
2023-01-19T15:54:34.581Z,99137.00
2023-01-19T15:57:47.846Z,99147.66
2023-01-19T16:01:00.328Z,99154.41
2023-01-19T16:04:13.271Z,99168.91
2023-01-19T16:07:25.677Z,99173.41
2023-01-19T16:10:38.691Z,99169.19
2023-01-19T16:13:51.212Z,99181.75
2023-01-19T16:17:05.193Z,99189.44
2023-01-19T16:20:18.459Z,99194.78
2023-01-19T16:23:31.137Z,99191.81
2023-01-19T16:26:43.465Z,99197.16
2023-01-19T16:29:57.186Z,99200.37
2023-01-19T16:33:11.591Z,99200.75
2023-01-19T16:36:26.530Z,99213.91
2023-01-19T16:39:38.876Z,99218.47
2023-01-19T16:42:51.528Z,99209.28
2023-01-19T16:46:04.435Z,99218.50
2023-01-19T16:49:21.869Z,99220.72
2023-01-19T16:52:34.255Z,99236.16
2023-01-19T16:55:48.560Z,99232.63
2023-01-19T16:59:00.937Z,99230.87
2023-01-19T17:02:13.612Z,99244.72
2023-01-19T17:05:26.019Z,99259.03
2023-01-19T17:08:38.850Z,99249.88
2023-01-19T17:11:51.255Z,99267.72
2023-01-19T17:15:04.040Z,99280.59
2023-01-19T17:18:16.394Z,99278.00
2023-01-19T17:21:29.098Z,99286.50
2023-01-19T17:24:43.268Z,99289.59
2023-01-19T17:27:55.999Z,99292.84
2023-01-19T17:31:14.156Z,99298.59
2023-01-19T17:34:27.028Z,99315.31
2023-01-19T17:37:39.386Z,99319.19
2023-01-19T17:40:51.975Z,99329.50
2023-01-19T17:44:05.076Z,99333.31
2023-01-19T17:47:17.813Z,99329.16
2023-01-19T17:50:30.410Z,99331.44
2023-01-19T17:53:43.136Z,99339.47
2023-01-19T17:56:56.320Z,99331.44
2023-01-19T18:00:09.645Z,99340.09
2023-01-19T18:03:24.668Z,99349.47
2023-01-19T18:06:37.827Z,99343.03
2023-01-19T18:09:50.193Z,99338.50
2023-01-19T18:13:02.755Z,99333.72
2023-01-19T18:16:17.430Z,99333.06
2023-01-19T18:19:30.159Z,99341.44
2023-01-19T18:22:43.024Z,99360.56
2023-01-19T18:26:05.691Z,99355.25
2023-01-19T18:29:19.374Z,99363.28
2023-01-19T18:32:34.235Z,99364.56
2023-01-19T18:35:46.698Z,99368.13
2023-01-19T18:38:59.390Z,99374.19
2023-01-19T18:42:11.817Z,99377.13
2023-01-19T18:45:24.453Z,99381.28
2023-01-19T18:48:37.479Z,99376.94
2023-01-19T18:51:50.148Z,99376.94
2023-01-19T18:55:05.624Z,99371.00
2023-01-19T18:58:18.382Z,99370.19
2023-01-19T19:01:33.416Z,99372.47
2023-01-19T19:04:46.159Z,99383.37
2023-01-19T19:07:58.557Z,99397.66
2023-01-19T19:11:13.938Z,99395.41
2023-01-19T19:14:26.435Z,99394.78
2023-01-19T19:17:39.069Z,99392.53
2023-01-19T19:20:51.360Z,99388.69
2023-01-19T19:24:04.203Z,99393.47
2023-01-19T19:27:17.791Z,99393.47
2023-01-19T19:30:30.876Z,99406.47
2023-01-19T19:33:43.218Z,99408.91
2023-01-19T19:36:55.845Z,99415.34
2023-01-19T19:40:09.013Z,99415.94
2023-01-19T19:43:22.202Z,99429.97
2023-01-19T19:46:34.623Z,99428.97
2023-01-19T19:49:47.274Z,99446.81
2023-01-19T19:53:00.251Z,99447.44
2023-01-19T19:56:15.956Z,99454.25
2023-01-19T19:59:28.308Z,99451.63
2023-01-19T20:02:40.964Z,99452.47
2023-01-19T20:05:53.535Z,99440.72
2023-01-19T20:09:07.051Z,99453.88
2023-01-19T20:12:19.643Z,99462.06
2023-01-19T20:15:32.259Z,99458.31
2023-01-19T20:18:48.567Z,99463.16
2023-01-19T20:22:00.965Z,99463.78
2023-01-19T20:25:13.676Z,99470.03
2023-01-19T20:28:25.988Z,99463.28
2023-01-19T20:31:41.385Z,99476.28
2023-01-19T20:34:53.779Z,99468.94
2023-01-19T20:38:06.937Z,99472.28
2023-01-19T20:41:19.404Z,99474.19
2023-01-19T20:44:32.037Z,99474.06
2023-01-19T20:47:44.460Z,99470.81
2023-01-19T20:51:04.998Z,99475.09
2023-01-19T20:54:18.218Z,99487.81
2023-01-19T20:57:30.844Z,99485.88
2023-01-19T21:00:43.198Z,99484.91
2023-01-19T21:03:55.807Z,99471.91
2023-01-19T21:07:09.088Z,99473.00
2023-01-19T21:10:22.259Z,99470.59
2023-01-19T21:13:34.671Z,99461.31
2023-01-19T21:16:48.261Z,99475.22
2023-01-19T21:20:00.622Z,99473.63
2023-01-19T21:23:13.206Z,99504.44
2023-01-19T21:26:25.624Z,99512.72
2023-01-19T21:29:38.242Z,99519.63
2023-01-19T21:32:50.569Z,99531.03
2023-01-19T21:36:03.307Z,99546.03
2023-01-19T21:39:17.340Z,99576.16
2023-01-19T21:42:30.208Z,99564.09
2023-01-19T21:45:43.313Z,99550.44
2023-01-19T21:48:57.099Z,99527.38
2023-01-19T21:52:09.455Z,99531.56
2023-01-19T21:55:22.110Z,99555.31
2023-01-19T21:58:34.474Z,99570.25
2023-01-19T22:01:47.163Z,99572.13
2023-01-19T22:04:59.839Z,99547.53
2023-01-19T22:08:12.170Z,99546.72
2023-01-19T22:11:25.241Z,99540.91
2023-01-19T22:14:37.580Z,99553.16
2023-01-19T22:17:50.202Z,99553.50
2023-01-19T22:21:19.194Z,99539.06
2023-01-19T22:24:31.826Z,99544.19
2023-01-19T22:27:44.164Z,99546.09
2023-01-19T22:31:06.667Z,99555.69
2023-01-19T22:34:19.032Z,99557.38
2023-01-19T22:37:35.637Z,99566.06
2023-01-19T22:40:47.960Z,99567.37
2023-01-19T22:44:02.099Z,99551.94
2023-01-19T22:47:14.443Z,99548.03
2023-01-19T22:50:27.084Z,99536.06
2023-01-19T22:53:39.560Z,99528.00
2023-01-19T22:56:52.171Z,99523.84
2023-01-19T23:00:06.799Z,99530.28
2023-01-19T23:03:19.425Z,99522.28
2023-01-19T23:06:33.108Z,99516.56
2023-01-19T23:09:45.719Z,99525.84
2023-01-19T23:12:58.065Z,99516.69
2023-01-19T23:16:10.861Z,99513.84
2023-01-19T23:19:23.178Z,99510.16
2023-01-19T23:22:35.892Z,99510.16
2023-01-19T23:25:48.255Z,99514.44
2023-01-19T23:29:01.387Z,99507.94
2023-01-19T23:32:13.711Z,99506.25
2023-01-19T23:35:26.298Z,99503.72
2023-01-19T23:38:38.800Z,99503.94
2023-01-19T23:41:51.425Z,99511.41
2023-01-19T23:45:04.072Z,99511.03
2023-01-19T23:48:16.723Z,99514.66
2023-01-19T23:51:30.099Z,99517.81
2023-01-19T23:54:42.774Z,99514.41
2023-01-19T23:57:55.161Z,99516.31
